Charlottesville Albemarle Airport
KCHO : now visible

Airfield :











YOU CAN JOIN US ON...

 
LOGIN :

Register | Disclaimer

   EN    FR    IT 

 









Legend :    VFR   Marginal VFR   IFR   Intensive IFR   Very Intensive IFR
Visi :
Ceiling :
>= 8 km
>= 3000ft
5 to 8 km
1000 to 3000 ft
1500m to 5 km
500 to 1000 ft
800 to 1500m
200 to 500 ft
< 800m
< 200 ft
Symbols :   Thunderstorms  Fog  Heavy snow  Heavy precipitations  Wind > 20 kt






- Airport Elevation : 639 ft
- IATA code : CHO


KCHO - Charlottesville Albemarle

CURRENT METAR :
  • 281253Z 06004KT 10SM OVC021 14/12 A2999 RMK AO2 SLP153 T01440122

EXPIRED METARs :
  • 281153Z 03003KT 7SM OVC025 14/12 A2998 RMK AO2 SLP150 60003 70004 T01390122 10144 20133 55003
  • 281128Z 00000KT 7SM OVC029 13/12 A2998 RMK AO2 T01330122
  • 281105Z 02004KT 8SM FEW022 OVC030 13/12 A2998 RMK AO2 T01330117
  • 281053Z 03003KT 9SM BKN022 OVC030 14/12 A2998 RMK AO2 SLP147 T01390117

TAF KCHO
Valid from the 28 at 12:00 until the 29 at 12:00 UTC


281134Z 2812/2912 09004KT P6SM OVC015
FM281900 14004KT P6SM BKN035
FM290500 00000KT 5SM BR BKN008



MET'MAP, your aeronautical weather chart ! - Copyright ORBIFLY December 2007 - Disclaimer

ORBIFLY MET'MAP TEAM :

Programming & Development : Alexandra Zaïnal
Concept & original design : Baudouin d'Aumeries
Assistance for programming : Marc-Olivier Méhu
Technical & hardware support : Manuel Goepfert

Contact : metmap@orbifly.com




SOURCES & CREDITS :

   NOAA       Earth
Advisory